createdAt,value
2023-01-08T16:42:20.320Z,102393.23
2023-01-08T16:44:47.768Z,102398.96
2023-01-08T16:47:15.949Z,102399.20
2023-01-08T16:49:46.470Z,102394.73
2023-01-08T16:52:15.933Z,102399.98
2023-01-08T16:54:43.472Z,102397.91
2023-01-08T16:57:11.709Z,102399.10
2023-01-08T16:59:40.946Z,102403.75
2023-01-08T17:02:11.089Z,102402.67
2023-01-08T17:04:39.559Z,102404.85
2023-01-08T17:07:08.112Z,102408.98
2023-01-08T17:09:35.548Z,102402.25
2023-01-08T17:12:06.356Z,102402.94
2023-01-08T17:14:37.231Z,102397.13
2023-01-08T17:17:05.202Z,102392.09
2023-01-08T17:19:36.728Z,102395.11
2023-01-08T17:22:05.349Z,102391.81
2023-01-08T17:24:34.043Z,102395.20
2023-01-08T17:27:01.165Z,102400.37
2023-01-08T17:29:29.550Z,102396.03
2023-01-08T17:31:58.745Z,102398.77
2023-01-08T17:34:26.348Z,102394.77
2023-01-08T17:36:53.557Z,102394.50
2023-01-08T17:39:21.129Z,102394.73
2023-01-08T17:42:07.726Z,102393.98
2023-01-08T17:44:35.064Z,102398.77
2023-01-08T17:47:02.939Z,102397.09
2023-01-08T17:49:31.636Z,102398.17
2023-01-08T17:51:59.083Z,102396.46
2023-01-08T17:54:26.939Z,102403.09
2023-01-08T17:56:54.312Z,102404.30
2023-01-08T17:59:23.803Z,102402.09
2023-01-08T18:01:53.131Z,102410.64
2023-01-08T18:04:21.038Z,102414.72
2023-01-08T18:06:49.500Z,102414.55
2023-01-08T18:09:17.311Z,102416.02
2023-01-08T18:11:45.091Z,102410.46
2023-01-08T18:14:12.980Z,102401.73
2023-01-08T18:16:41.140Z,102401.77
2023-01-08T18:19:09.614Z,102403.23
2023-01-08T18:21:37.235Z,102405.36
2023-01-08T18:24:05.137Z,102406.13
2023-01-08T18:26:32.594Z,102406.66
2023-01-08T18:29:03.627Z,102402.63
2023-01-08T18:31:31.512Z,102398.24
2023-01-08T18:34:02.013Z,102394.36
2023-01-08T18:36:31.739Z,102394.08
2023-01-08T18:39:01.141Z,102398.83
2023-01-08T18:41:48.107Z,102402.05
2023-01-08T18:44:15.352Z,102403.58
2023-01-08T18:54:21.011Z,102403.84
2023-01-08T18:56:51.582Z,102396.12
2023-01-08T18:59:19.530Z,102392.64
2023-01-08T19:01:47.648Z,102390.03
2023-01-08T19:04:18.323Z,102386.62
2023-01-08T19:06:45.964Z,102384.32
2023-01-08T19:09:15.207Z,102383.63
2023-01-08T19:11:46.205Z,102380.99
2023-01-08T19:14:15.400Z,102378.98
2023-01-08T19:16:48.799Z,102379.70
2023-01-08T19:19:20.979Z,102381.16
2023-01-08T19:21:48.617Z,102380.50
2023-01-08T19:24:15.967Z,102383.73
2023-01-08T19:26:43.937Z,102382.98
2023-01-08T19:29:11.603Z,102385.45
2023-01-08T19:31:40.934Z,102381.83
2023-01-08T19:34:10.098Z,102389.08
2023-01-08T19:36:37.908Z,102393.35
2023-01-08T19:39:07.980Z,102389.16
2023-01-08T19:41:54.416Z,102389.80
2023-01-08T19:44:22.249Z,102391.80
2023-01-08T19:46:50.215Z,102389.10
2023-01-08T19:49:21.956Z,102389.42
2023-01-08T19:51:55.783Z,102396.63
2023-01-08T19:54:26.526Z,102391.81
2023-01-08T19:56:54.890Z,102395.60
2023-01-08T19:59:24.146Z,102400.96
2023-01-08T20:01:53.440Z,102405.45
2023-01-08T20:04:22.967Z,102410.23
2023-01-08T20:06:52.882Z,102415.09
2023-01-08T20:09:20.367Z,102424.23
2023-01-08T20:11:48.133Z,102420.42
2023-01-08T20:14:15.864Z,102419.05
2023-01-08T20:16:44.788Z,102420.33
2023-01-08T20:19:12.549Z,102425.13
2023-01-08T20:21:40.116Z,102422.70
2023-01-08T20:24:12.335Z,102423.09
2023-01-08T20:26:40.670Z,102425.81
2023-01-08T20:29:14.565Z,102430.16
2023-01-08T20:31:42.665Z,102430.13
2023-01-08T20:34:16.018Z,102427.09
2023-01-08T20:36:45.220Z,102429.08
2023-01-08T20:39:13.955Z,102438.68
2023-01-08T20:41:49.806Z,102438.36
2023-01-08T20:44:28.813Z,102438.13
2023-01-08T20:46:56.671Z,102441.69
2023-01-08T20:49:26.961Z,102443.55
2023-01-08T20:51:59.095Z,102441.70
2023-01-08T20:54:27.397Z,102439.78
2023-01-08T20:56:56.244Z,102440.98
2023-01-08T20:59:24.807Z,102447.48
2023-01-08T21:01:54.436Z,102447.87
